Lyndell, Pennsylvania
Current Conditions -  °F | °C
As of 6:55 PM on Wednesday 22 Oct 2014 (Local Time) from KMQS Reporting Station
Light Rain Light Rain  
Wind Chill: 54°   Ceiling: 2100
Heat Index: 54°   Visibility: 10mi
Dew Point: 48°   Wind: 12mph
Humidity: 82%   Direction: 350°N
Pressure: 29.89"   Gusts: 22mph
Location:  40.06°N, 75.74°W
Report Text: KMQS 222255Z AUTO 35010G19KT 10SM -RA OVC021 12/09 A2989 RMK AO2
Loading
Personal Weather Stations






























Interactive Weather Map
Tropical Storm Tracking
New forecast layout! Learn more

10-Day Weather Forecast

Advertisements
Track Severe Weather on mobile